TimeAST,TemperatureF,Dew PointF,Humidity,Sea Level PressureIn,VisibilityMPH,Wind Direction,Wind SpeedMPH,Gust SpeedMPH,PrecipitationIn,Events,Conditions,WindDirDegrees,DateUTC
12:00 AM,82.4,75.2,79,29.92,6.2,ESE,9.2,-,N/A,,Scattered Clouds,110,2012-10-19 04:00:00
1:00 AM,80.6,75.2,84,29.92,6.2,ESE,8.1,-,N/A,Rain,Light Rain Showers,120,2012-10-19 05:00:00
2:00 AM,81,76,79,29.91,9,SSE,8.1,,,Rain,Light Rain Showers,150,2012-10-19 06:00:00
2:00 AM,80.6,75.2,84,29.89,6.2,SSE,8.1,-,N/A,Rain,Light Rain Showers,150,2012-10-19 06:00:00
3:00 AM,77.0,75.2,94,29.89,3.7,East,6.9,-,N/A,Rain,Rain Showers,100,2012-10-19 07:00:00
4:00 AM,77.0,75.2,94,29.89,6.2,SE,5.8,-,N/A,,Mostly Cloudy,130,2012-10-19 08:00:00
5:00 AM,79,74,82,29.91,9,SE,5.8,,,Rain,Light Rain Showers,140,2012-10-19 09:00:00
5:00 AM,78.8,75.2,89,29.89,6.2,SE,5.8,-,N/A,,Mostly Cloudy,140,2012-10-19 09:00:00
6:00 AM,75.2,71.6,89,29.92,6.2,SSE,6.9,-,N/A,Rain,Light Rain Showers,150,2012-10-19 10:00:00
7:00 AM,78.8,73.4,83,29.92,6.2,SSE,10.4,-,N/A,,Scattered Clouds,150,2012-10-19 11:00:00
8:00 AM,81,74,72,29.93,25,ESE,6.9,,,,Partly Cloudy,120,2012-10-19 12:00:00
8:00 AM,80.6,73.4,79,29.92,6.2,ESE,6.9,-,N/A,,Partly Cloudy,120,2012-10-19 12:00:00
9:00 AM,84.2,75.2,74,29.92,6.2,ESE,9.2,-,N/A,,Partly Cloudy,110,2012-10-19 13:00:00
10:00 AM,84.2,73.4,70,29.95,6.2,ESE,11.5,-,N/A,,Partly Cloudy,120,2012-10-19 14:00:00
11:00 AM,86,74,59,29.94,25,ESE,13.8,,,,Scattered Clouds,110,2012-10-19 15:00:00
12:00 PM,86.0,75.2,70,29.89,6.2,ESE,10.4,-,N/A,,Scattered Clouds,110,2012-10-19 16:00:00
1:00 PM,84.2,75.2,74,29.89,6.2,SE,11.5,-,N/A,,Scattered Clouds,130,2012-10-19 17:00:00
2:00 PM,86.0,73.4,66,29.86,6.2,SE,13.8,-,N/A,,Scattered Clouds,130,2012-10-19 18:00:00
3:00 PM,84.2,73.4,70,29.86,6.2,ESE,11.5,-,N/A,,Scattered Clouds,120,2012-10-19 19:00:00
4:00 PM,84.2,73.4,70,29.86,6.2,ESE,13.8,-,N/A,,Scattered Clouds,110,2012-10-19 20:00:00
5:00 PM,83,71,60,29.88,31,ESE,11.5,,,,Scattered Clouds,120,2012-10-19 21:00:00
5:00 PM,82.4,71.6,70,29.86,6.2,ESE,11.5,-,N/A,,Partly Cloudy,120,2012-10-19 21:00:00
6:00 PM,82.4,73.4,74,29.89,6.2,East,11.5,-,N/A,,Partly Cloudy,100,2012-10-19 22:00:00
7:00 PM,82.4,73.4,74,29.89,6.2,ESE,16.1,-,N/A,,Partly Cloudy,120,2012-10-19 23:00:00
8:00 PM,82,73,69,29.92,25,ESE,13.8,,,,Partly Cloudy,120,2012-10-20 00:00:00
8:00 PM,82.4,73.4,74,29.92,6.2,ESE,13.8,-,N/A,,Scattered Clouds,120,2012-10-20 00:00:00
9:00 PM,82.4,73.4,74,29.92,6.2,ESE,11.5,-,N/A,,Partly Cloudy,120,2012-10-20 01:00:00
10:00 PM,82.4,73.4,74,29.92,6.2,ESE,11.5,-,N/A,,Scattered Clouds,110,2012-10-20 02:00:00
11:00 PM,82,73,69,29.94,22,SE,13.8,,,,Scattered Clouds,130,2012-10-20 03:00:00
11:00 PM,82.4,73.4,74,29.92,6.2,ESE,13.8,-,N/A,,Partly Cloudy,120,2012-10-20 03:00:00